Time;durP1;ratioP1;P1;durP2;ratioP2;P2;SDS_P1;SDS_P2;PMS_P1;PMS_P2;Temp;Humidity;BMP_temperature;BMP_pressure;BME280_temperature;BME280_humidity;BME280_pressure;Samples;Min_cycle;Max_cycle;Signal;HPM_P1;HPM_P2
2023/10/16 00:04:04;;;;;;;4.33;3.93;;;2.80;99.90;;;3.34;99.73;98623.94;10385541;23;20313;-63
2023/10/16 00:09:14;;;;;;;4.40;4.00;;;2.70;99.90;;;3.24;100.00;98620.41;10366764;28;20224;-63
2023/10/16 00:14:23;;;;;;;4.47;4.10;;;2.60;99.90;;;3.18;100.00;98618.16;10394640;28;20227;-63
2023/10/16 00:19:33;;;;;;;4.43;4.13;;;2.50;99.90;;;3.16;98.97;98620.53;10401052;28;20245;-63
2023/10/16 00:24:36;;;;;;;3.90;3.70;;;2.50;99.90;;;3.05;99.53;98616.06;10404103;28;20230;-63
2023/10/16 00:29:41;;;;;;;4.13;3.83;;;2.40;99.90;;;2.99;100.00;98615.47;10400733;28;20242;-62
2023/10/16 00:34:46;;;;;;;4.67;4.30;;;2.40;99.90;;;3.00;100.00;98614.69;10401633;28;20235;-63
2023/10/16 00:39:50;;;;;;;4.83;4.43;;;2.50;99.90;;;3.07;100.00;98607.00;10405151;28;20225;-62
2023/10/16 00:44:59;;;;;;;4.53;4.13;;;2.50;99.90;;;3.13;100.00;98605.06;10398827;28;20329;-62
2023/10/16 00:50:05;;;;;;;5.77;4.30;;;2.50;99.90;;;3.04;99.96;98594.09;10403465;28;20220;-66
2023/10/16 00:55:11;;;;;;;5.13;4.63;;;2.40;99.90;;;3.00;98.99;98599.56;10397984;28;20240;-63
2023/10/16 01:00:15;;;;;;;4.60;4.30;;;2.40;99.90;;;3.00;100.00;98591.09;10398166;28;20673;-63
2023/10/16 01:05:23;;;;;;;4.67;4.37;;;2.30;99.90;;;2.88;99.76;98590.78;10401125;28;20611;-63
2023/10/16 01:10:27;;;;;;;4.70;4.30;;;2.20;99.90;;;2.60;98.42;98580.47;10401537;28;20227;-63
2023/10/16 01:15:31;;;;;;;3.90;3.70;;;2.00;99.90;;;2.67;99.46;98577.84;10403847;28;20623;-63
2023/10/16 01:20:37;;;;;;;4.23;3.93;;;2.00;99.90;;;2.65;100.00;98571.75;10399239;28;20658;-63
2023/10/16 01:25:42;;;;;;;4.80;4.50;;;2.00;99.90;;;2.71;100.00;98572.34;10401494;28;20231;-63
2023/10/16 01:30:47;;;;;;;4.63;4.23;;;2.10;99.90;;;2.77;100.00;98571.16;10399494;28;20247;-63
2023/10/16 01:35:51;;;;;;;4.40;4.10;;;2.10;99.90;;;2.66;100.00;98570.09;10401692;28;20248;-61
2023/10/16 01:41:06;;;;;;;4.97;4.50;;;2.00;99.90;;;2.57;99.23;98557.47;10398603;28;20223;-61
2023/10/16 01:46:12;;;;;;;4.20;4.00;;;2.00;99.90;;;2.44;98.97;98567.09;10401380;28;20263;-62
2023/10/16 01:51:19;;;;;;;4.53;4.23;;;1.90;99.90;;;2.53;98.55;98560.44;10401300;28;20318;-62
2023/10/16 01:56:23;;;;;;;5.03;4.63;;;1.90;99.90;;;2.42;99.72;98561.00;10399273;28;20236;-62
2023/10/16 02:01:27;;;;;;;5.20;4.80;;;1.90;99.90;;;2.47;100.00;98557.31;10394829;28;20312;-62
2023/10/16 02:06:30;;;;;;;4.67;4.33;;;1.90;99.90;;;2.39;100.00;98546.47;10398922;28;20231;-62
2023/10/16 02:11:36;;;;;;;5.03;4.63;;;1.80;99.90;;;2.47;100.00;98559.84;10398658;28;20317;-62
2023/10/16 02:16:41;;;;;;;4.90;4.60;;;1.90;99.90;;;2.45;100.00;98543.66;10400264;28;20259;-62
2023/10/16 02:21:46;;;;;;;5.10;4.47;;;1.90;99.90;;;2.46;100.00;98542.91;10399645;28;20263;-61
2023/10/16 02:26:56;;;;;;;5.47;5.00;;;1.90;99.90;;;2.35;99.63;98538.47;10399965;28;20230;-61
2023/10/16 02:32:03;;;;;;;4.73;4.40;;;1.70;99.90;;;2.34;99.89;98532.50;10396373;28;20263;-62
2023/10/16 02:37:09;;;;;;;5.13;4.63;;;1.70;99.90;;;2.37;100.00;98529.38;10398411;28;20231;-62
2023/10/16 02:42:14;;;;;;;5.23;4.83;;;1.80;99.90;;;2.43;98.59;98532.50;10395854;28;20241;-62
2023/10/16 02:47:25;;;;;;;5.40;4.90;;;1.70;99.90;;;2.23;100.00;98528.94;10400801;28;20234;-62
2023/10/16 02:52:30;;;;;;;4.77;4.47;;;1.60;99.90;;;2.22;100.00;98532.16;10394066;28;20255;-61
2023/10/16 02:57:35;;;;;;;5.83;5.33;;;1.60;99.90;;;2.24;100.00;98529.81;10398153;28;20709;-62
2023/10/16 03:02:39;;;;;;;5.57;5.07;;;1.70;99.90;;;2.16;100.00;98521.47;10398201;28;20339;-62
2023/10/16 03:07:44;;;;;;;5.27;4.97;;;1.60;99.90;;;2.25;99.58;98519.84;10402677;28;20293;-62
2023/10/16 03:12:50;;;;;;;4.77;4.37;;;1.70;99.90;;;2.22;100.00;98519.56;10406977;28;20245;-62
2023/10/16 03:17:54;;;;;;;4.80;4.50;;;1.70;99.90;;;2.16;100.00;98526.50;10406221;28;20224;-60
2023/10/16 03:22:59;;;;;;;5.00;4.60;;;1.60;99.90;;;2.19;100.00;98531.88;10406749;28;20247;-64
2023/10/16 03:28:05;;;;;;;5.57;5.07;;;1.60;99.90;;;2.15;99.66;98524.75;10406121;28;20278;-62
2023/10/16 03:33:13;;;;;;;5.00;4.63;;;1.60;99.90;;;2.12;100.00;98529.47;10403746;28;20307;-61
2023/10/16 03:38:28;;;;;;;5.63;5.30;;;1.50;99.90;;;1.96;100.00;98531.19;10405913;28;20319;-61
2023/10/16 03:43:33;;;;;;;5.40;5.00;;;1.30;99.90;;;1.88;100.00;98527.00;10406596;28;20240;-62
2023/10/16 03:48:38;;;;;;;5.40;5.00;;;1.30;99.90;;;1.85;100.00;98522.53;10404674;28;20234;-61
2023/10/16 03:53:43;;;;;;;4.93;4.43;;;1.30;99.90;;;1.84;100.00;98524.94;10406835;28;20289;-62
2023/10/16 03:58:47;;;;;;;5.30;4.90;;;1.30;99.90;;;1.65;100.00;98522.16;10398719;28;20226;-61
2023/10/16 04:03:56;;;;;;;5.43;4.93;;;1.10;99.90;;;1.54;100.00;98521.06;10404412;28;20234;-61
2023/10/16 04:08:59;;;;;;;4.63;4.23;;;1.00;99.90;;;1.59;100.00;98522.41;10413542;28;20248;-62
2023/10/16 04:14:08;;;;;;;5.40;5.00;;;1.10;99.90;;;1.54;100.00;98513.50;10407393;28;20233;-63
2023/10/16 04:24:54;;;;;;;6.63;5.90;;;1.20;99.90;;;1.79;100.00;98500.13;10487298;27;20793;-61
2023/10/16 04:35:52;;;;;;;6.40;5.90;;;1.20;99.90;;;1.79;100.00;98489.16;10425073;28;20689;-62
2023/10/16 04:46:20;;;;;;;6.03;5.53;;;1.30;99.90;;;1.83;100.00;98483.69;10425910;28;20229;-61
2023/10/16 04:51:27;;;;;;;6.00;5.60;;;1.30;99.90;;;1.86;100.00;98480.59;10434502;28;20229;-60
2023/10/16 05:02:10;;;;;;;5.70;5.30;;;1.10;99.90;;;1.72;100.00;98462.47;10431164;28;20229;-62
2023/10/16 05:07:34;;;;;;;5.77;5.37;;;1.20;99.90;;;1.60;100.00;98458.69;10422747;28;20225;-62
2023/10/16 05:18:11;;;;;;;6.00;5.57;;;1.10;99.90;;;1.75;100.00;98455.22;10418329;28;20221;-62
2023/10/16 06:16:54;;;;;;;7.80;5.97;;;1.50;99.90;;;2.47;100.00;98469.03;10341494;28;20233;-62
2023/10/16 06:22:06;;;;;;;5.90;5.40;;;1.70;99.90;;;2.80;98.06;98475.56;10347476;28;20235;-62
2023/10/16 06:27:10;;;;;;;5.20;4.70;;;1.90;99.90;;;3.08;97.12;98474.94;10351195;28;20334;-61
2023/10/16 06:32:19;;;;;;;6.40;5.77;;;2.30;99.90;;;3.63;94.64;98466.63;10345164;28;20651;-61
2023/10/16 06:37:22;;;;;;;6.07;5.57;;;2.70;99.90;;;3.74;94.62;98467.63;10345005;28;20225;-61
2023/10/16 06:42:25;;;;;;;5.40;4.90;;;2.90;99.90;;;4.32;92.41;98467.94;10337734;28;20235;-61
2023/10/16 06:47:35;;;;;;;6.00;5.10;;;3.50;99.90;;;4.88;88.80;98463.63;10337259;28;20809;-62
2023/10/16 06:52:40;;;;;;;5.13;4.80;;;3.60;99.90;;;4.92;86.83;98471.66;10340265;28;20384;-62
2023/10/16 06:57:44;;;;;;;6.13;5.63;;;3.90;99.90;;;5.08;86.12;98465.38;10343569;28;20382;-62
2023/10/16 07:02:52;;;;;;;6.33;5.73;;;3.90;99.90;;;5.28;86.07;98462.94;10346076;28;20226;-62
2023/10/16 07:07:59;;;;;;;6.67;6.17;;;4.30;99.90;;;5.55;85.37;98474.59;10341199;28;20276;-61
2023/10/16 07:13:02;;;;;;;7.10;6.57;;;4.70;99.90;;;5.50;83.89;98467.34;10334917;28;20237;-61
2023/10/16 07:18:13;;;;;;;6.60;6.03;;;4.70;99.90;;;5.94;85.38;98470.28;10336782;28;20312;-62
2023/10/16 07:23:17;;;;;;;6.07;5.53;;;5.10;99.90;;;6.29;83.53;98466.50;10335228;28;20231;-61
2023/10/16 07:28:20;;;;;;;7.07;6.43;;;5.30;99.90;;;6.44;84.29;98466.91;10339611;28;20253;-62
2023/10/16 07:33:25;;;;;;;9.13;6.83;;;5.50;99.90;;;6.82;82.11;98465.75;10337794;28;20230;-62
2023/10/16 07:38:29;;;;;;;7.80;6.60;;;5.90;99.90;;;7.09;82.09;98449.25;10351403;28;20230;-61
2023/10/16 07:43:34;;;;;;;8.63;6.50;;;6.10;99.90;;;7.49;77.63;98455.84;10353153;28;20241;-61
2023/10/16 07:48:40;;;;;;;7.37;6.50;;;6.60;99.90;;;7.39;78.68;98438.09;10337114;28;20707;-61
2023/10/16 07:53:43;;;;;;;6.70;6.10;;;6.50;99.90;;;7.48;80.53;98443.91;10348154;28;20299;-61
2023/10/16 07:58:48;;;;;;;5.43;5.03;;;6.60;99.90;;;7.52;78.75;98438.28;10337124;28;20231;-62
2023/10/16 08:03:53;;;;;;;6.17;5.60;;;6.80;99.90;;;8.10;76.68;98435.16;10335703;28;20706;-61
2023/10/16 08:14:15;;;;;;;6.23;5.73;;;7.10;99.90;;;7.97;79.83;98432.44;10339640;28;20230;-61
2023/10/16 08:19:24;;;;;;;6.30;5.70;;;7.50;99.90;;;8.76;78.63;98434.09;10337311;28;20241;-61
2023/10/16 08:24:28;;;;;;;6.07;5.63;;;8.30;99.90;;;9.10;76.32;98440.00;10334390;28;20235;-62
2023/10/16 08:29:34;;;;;;;6.13;5.53;;;8.50;99.90;;;9.38;75.96;98441.94;10337374;28;20227;-61
2023/10/16 08:34:42;;;;;;;6.53;5.93;;;8.80;99.90;;;9.55;74.37;98432.94;10338969;28;20233;-62
2023/10/16 08:39:48;;;;;;;6.43;5.83;;;8.90;99.90;;;9.87;75.37;98427.50;10333756;28;20309;-62
2023/10/16 08:44:54;;;;;;;6.73;6.03;;;9.30;99.90;;;10.18;73.47;98429.59;10339134;28;20313;-63
2023/10/16 08:50:00;;;;;;;6.28;5.68;;;9.60;99.90;;;10.67;71.13;98441.44;10340370;28;20227;-61
2023/10/16 08:55:15;;;;;;;6.75;6.25;;;10.10;99.90;;;10.56;71.50;98433.09;10335930;28;20651;-62
2023/10/16 09:00:23;;;;;;;6.53;6.03;;;10.00;99.90;;;10.41;71.60;98436.28;10357192;28;20288;-62
2023/10/16 09:05:27;;;;;;;6.32;5.82;;;9.70;99.90;;;10.47;73.43;98436.69;10381163;28;20605;-62
2023/10/16 09:10:30;;;;;;;7.05;6.35;;;10.00;99.90;;;10.90;72.21;98435.31;10379251;28;20217;-62
2023/10/16 09:15:38;;;;;;;6.43;5.82;;;10.30;99.90;;;11.31;71.28;98434.50;10382643;28;20316;-61
2023/10/16 09:20:43;;;;;;;6.88;6.28;;;10.70;99.90;;;11.70;68.54;98427.53;10385942;28;20221;-62
2023/10/16 09:25:48;;;;;;;5.82;5.43;;;11.20;99.90;;;11.70;67.33;98420.75;10380968;28;20719;-62
2023/10/16 09:30:52;;;;;;;6.57;5.97;;;11.00;99.90;;;11.76;68.38;98421.91;10384486;28;20260;-62
2023/10/16 09:36:18;;;;;;;5.70;5.20;;;11.10;99.90;;;11.88;66.68;98417.59;10385604;28;20308;-62
2023/10/16 09:41:38;;;;;;;5.57;5.18;;;11.20;99.90;;;11.97;66.66;98410.44;10382947;28;20239;-62
2023/10/16 09:46:52;;;;;;;4.63;4.20;;;11.30;99.90;;;12.12;65.22;98411.38;10379140;28;20309;-62
2023/10/16 09:52:04;;;;;;;5.70;5.20;;;11.40;99.90;;;12.16;66.70;98407.28;10389468;28;20233;-62
2023/10/16 09:57:14;;;;;;;4.93;4.53;;;11.50;99.90;;;12.45;63.82;98401.34;10386509;28;20609;-62
2023/10/16 10:02:25;;;;;;;4.25;3.85;;;11.80;99.90;;;12.61;62.20;98388.59;10384820;28;20218;-62
2023/10/16 10:07:35;;;;;;;3.75;3.45;;;12.00;99.90;;;12.57;59.62;98389.22;10386484;28;20288;-62
2023/10/16 10:12:47;;;;;;;4.55;4.15;;;12.10;99.90;;;12.47;60.27;98392.03;10383333;28;20226;-62
2023/10/16 10:17:55;;;;;;;4.35;4.00;;;11.80;99.90;;;12.64;60.01;98377.63;10384978;28;20229;-62
2023/10/16 10:23:04;;;;;;;5.47;4.22;;;12.10;99.90;;;12.83;59.55;98375.31;10380443;28;20226;-62
2023/10/16 10:28:22;;;;;;;4.00;3.63;;;12.40;99.90;;;12.51;59.75;98375.19;10381306;28;20222;-63
2023/10/16 10:33:42;;;;;;;3.75;3.10;;;12.00;99.90;;;12.14;58.74;98376.47;10385446;28;20240;-62
2023/10/16 10:38:47;;;;;;;4.75;3.47;;;11.70;99.90;;;12.13;57.99;98367.03;10383132;28;20225;-62
2023/10/16 10:44:03;;;;;;;3.83;3.53;;;11.70;99.90;;;12.65;57.88;98363.13;10390281;28;20310;-62
2023/10/16 10:49:07;;;;;;;3.85;3.40;;;12.30;99.80;;;13.00;55.10;98358.31;10391209;28;20230;-62
2023/10/16 10:54:13;;;;;;;3.47;3.28;;;12.70;97.90;;;13.02;55.54;98343.88;10387939;28;20235;-62
2023/10/16 10:59:39;;;;;;;4.15;3.85;;;12.70;97.90;;;12.66;56.72;98344.41;10380375;28;20609;-62
2023/10/16 11:04:44;;;;;;;3.40;3.15;;;12.50;98.80;;;13.19;56.26;98338.78;10385073;28;20226;-62
2023/10/16 11:09:50;;;;;;;3.97;3.60;;;12.80;98.90;;;12.68;56.99;98337.69;10384305;28;20242;-62
2023/10/16 11:14:54;;;;;;;3.95;3.45;;;12.40;98.30;;;12.78;58.27;98333.13;10382179;28;20299;-62
2023/10/16 11:20:11;;;;;;;4.28;3.88;;;12.40;99.90;;;12.32;56.03;98327.06;10383746;28;20221;-62
2023/10/16 11:25:16;;;;;;;2.90;2.70;;;12.10;98.20;;;12.54;56.06;98314.69;10333484;28;20237;-62
2023/10/16 11:30:20;;;;;;;2.92;2.72;;;12.20;97.90;;;12.96;53.45;98299.03;10339448;28;20231;-62
2023/10/16 11:35:26;;;;;;;2.95;2.75;;;12.50;96.40;;;12.99;53.43;98283.78;10339760;28;20245;-62
2023/10/16 11:40:39;;;;;;;2.63;2.42;;;12.50;96.10;;;13.04;52.57;98278.13;10338118;28;20304;-62
2023/10/16 11:45:45;;;;;;;2.72;2.53;;;12.50;96.10;;;12.61;51.06;98275.75;10353953;28;20233;-61
2023/10/16 11:50:51;;;;;;;2.55;2.35;;;12.30;94.20;;;12.77;52.83;98268.94;10379946;28;20214;-61
2023/10/16 11:55:56;;;;;;;3.15;2.63;;;12.20;95.90;;;12.98;50.60;98267.53;10383521;28;20230;-62
2023/10/16 12:01:09;;;;;;;3.30;3.10;;;12.60;94.00;;;12.54;52.65;98252.28;10380131;28;20254;-62
2023/10/16 12:06:31;;;;;;;2.95;2.65;;;12.00;95.50;;;12.46;51.93;98249.28;10384972;28;20225;-61
2023/10/16 12:11:36;;;;;;;2.40;2.20;;;12.00;94.30;;;12.63;51.65;98251.09;10384788;28;20649;-61
2023/10/16 12:16:39;;;;;;;2.70;2.50;;;12.10;94.70;;;12.53;51.39;98240.22;10385494;28;20225;-61
2023/10/16 12:21:50;;;;;;;3.22;2.92;;;12.00;94.30;;;12.56;50.99;98230.16;10381315;28;20230;-61
2023/10/16 12:26:54;;;;;;;2.88;2.45;;;12.20;94.20;;;12.51;51.25;98211.09;10381747;28;20232;-61
2023/10/16 12:32:00;;;;;;;2.50;2.30;;;12.20;94.20;;;12.60;50.20;98207.34;10385241;28;21189;-61
2023/10/16 12:37:06;;;;;;;2.75;2.63;;;12.10;93.60;;;12.65;49.53;98205.03;10381421;28;20317;-62
2023/10/16 12:42:13;;;;;;;2.83;2.63;;;12.10;93.20;;;12.60;51.60;98185.94;10381123;28;20267;-62
2023/10/16 12:47:16;;;;;;;4.28;2.83;;;12.00;94.30;;;12.72;50.20;98180.59;10397711;28;20225;-62
2023/10/16 12:52:42;;;;;;;2.50;2.30;;;12.30;93.70;;;12.40;50.50;98172.03;10396776;28;20328;-61
2023/10/16 12:57:48;;;;;;;3.15;2.85;;;12.00;93.10;;;12.81;49.68;98171.69;10393588;28;20236;-62
2023/10/16 13:02:54;;;;;;;2.35;2.20;;;12.30;93.20;;;12.56;49.29;98164.38;10390617;28;20230;-62
2023/10/16 13:07:58;;;;;;;2.17;2.00;;;12.10;92.70;;;12.84;49.22;98170.97;10393688;28;20225;-62
2023/10/16 13:13:04;;;;;;;2.40;2.17;;;12.20;92.70;;;12.55;48.30;98166.84;10393181;28;20226;-62
2023/10/16 13:18:11;;;;;;;2.30;2.20;;;12.10;92.00;;;12.86;47.92;98166.81;10388547;28;20234;-62
2023/10/16 13:23:16;;;;;;;2.58;2.42;;;12.30;91.70;;;12.88;48.66;98157.53;10387865;28;20237;-62
2023/10/16 13:28:36;;;;;;;2.63;2.42;;;12.30;92.00;;;12.78;46.94;98162.97;10388690;28;20717;-62
2023/10/16 13:33:42;;;;;;;2.42;2.28;;;12.40;90.70;;;12.81;47.43;98155.41;10387534;28;20629;-62
2023/10/16 13:38:45;;;;;;;3.22;2.97;;;12.30;91.30;;;12.76;47.70;98156.84;10385859;28;20221;-63
2023/10/16 13:43:50;;;;;;;2.58;2.45;;;12.20;91.40;;;12.85;48.60;98144.53;10397993;28;20233;-61
2023/10/16 13:48:53;;;;;;;3.17;2.80;;;12.30;92.10;;;12.57;49.49;98145.63;10390191;28;20717;-62
2023/10/16 13:53:58;;;;;;;2.83;2.63;;;12.10;92.50;;;12.51;49.20;98132.47;10394820;28;20226;-62
2023/10/16 13:59:03;;;;;;;2.90;2.70;;;12.10;92.20;;;12.54;49.43;98122.38;10385356;28;20228;-62
2023/10/16 14:04:13;;;;;;;2.85;2.65;;;12.10;92.40;;;12.17;50.64;98120.38;10390029;28;20232;-62
2023/10/16 14:09:20;;;;;;;2.90;2.70;;;11.90;92.70;;;12.41;50.49;98127.66;10409974;28;20806;-61
2023/10/16 14:14:26;;;;;;;3.60;3.20;;;12.00;92.90;;;12.24;50.99;98119.03;10390835;28;20252;-61
2023/10/16 14:19:30;;;;;;;3.20;3.00;;;11.90;92.80;;;12.30;51.04;98114.25;10386494;28;20317;-62
2023/10/16 14:24:34;;;;;;;3.28;3.08;;;11.90;92.90;;;12.36;51.44;98111.13;10382985;28;20248;-62
2023/10/16 14:29:44;;;;;;;3.38;3.17;;;11.90;93.30;;;12.14;51.42;98115.09;10389341;28;20313;-61
2023/10/16 14:34:48;;;;;;;3.60;3.30;;;11.80;93.10;;;11.93;51.38;98108.78;10389705;28;20226;-61
2023/10/16 14:39:56;;;;;;;2.85;2.72;;;11.60;93.30;;;12.12;51.94;98106.44;10382994;28;20222;-61
2023/10/16 14:45:06;;;;;;;3.10;2.90;;;11.60;93.90;;;12.07;52.62;98106.97;10385532;28;20285;-62
2023/10/16 14:50:14;;;;;;;3.35;3.13;;;11.60;94.10;;;11.95;52.20;98112.31;10376358;28;20239;-62
2023/10/16 14:55:17;;;;;;;3.80;3.50;;;11.60;93.80;;;11.83;52.03;98115.03;10387103;28;20237;-62
2023/10/16 15:00:27;;;;;;;2.95;2.75;;;11.50;93.70;;;11.93;52.70;98111.34;10380818;28;20739;-62
2023/10/16 15:05:31;;;;;;;3.35;3.13;;;11.50;94.10;;;12.05;52.27;98106.91;10378773;28;20646;-61
2023/10/16 15:10:35;;;;;;;3.40;3.20;;;11.60;94.70;;;11.73;53.34;98113.66;10382162;28;20253;-61
2023/10/16 15:15:52;;;;;;;3.03;2.83;;;11.40;94.40;;;11.52;53.53;98117.53;10387303;28;20282;-61
2023/10/16 15:20:55;;;;;;;4.00;3.30;;;11.20;94.30;;;11.65;53.51;98125.13;10383057;28;20214;-62
2023/10/16 15:25:58;;;;;;;2.92;2.72;;;11.20;94.70;;;11.48;53.91;98139.53;10398056;28;20617;-61
2023/10/16 15:31:03;;;;;;;3.35;3.10;;;11.10;94.80;;;11.51;53.89;98131.16;10375518;28;20226;-61
2023/10/16 15:36:07;;;;;;;4.15;3.40;;;11.00;94.90;;;11.40;53.23;98132.19;10389716;28;20226;-61
2023/10/16 15:41:13;;;;;;;7.07;6.40;;;11.00;94.40;;;11.38;53.45;98128.66;10393456;28;20240;-62
2023/10/16 15:46:27;;;;;;;4.38;4.07;;;10.90;94.70;;;11.10;53.79;98134.69;10388357;28;20225;-62
2023/10/16 15:51:32;;;;;;;7.15;6.75;;;10.70;94.70;;;11.02;54.78;98133.41;10384859;28;20731;-62
2023/10/16 15:56:35;;;;;;;16.33;15.13;;;10.60;95.50;;;11.06;55.46;98135.31;10388519;28;20222;-63
2023/10/16 16:01:42;;;;;;;15.65;14.65;;;10.50;96.10;;;10.90;55.94;98125.88;10388594;28;20234;-62
2023/10/16 16:06:45;;;;;;;3.90;3.65;;;10.40;96.30;;;10.94;56.21;98116.69;10379751;28;20237;-62
2023/10/16 16:11:48;;;;;;;3.95;3.65;;;10.30;96.80;;;10.87;56.56;98122.22;10383464;28;20229;-62
2023/10/16 16:16:53;;;;;;;11.60;8.10;;;10.20;97.20;;;10.77;57.02;98129.34;10399701;28;20237;-63
2023/10/16 16:21:56;;;;;;;3.20;2.97;;;10.10;97.60;;;10.45;57.17;98126.50;10392597;28;20225;-61
2023/10/16 16:26:59;;;;;;;3.88;3.10;;;10.00;97.50;;;10.34;57.51;98128.41;10393260;28;20224;-62
2023/10/16 16:32:04;;;;;;;3.00;2.78;;;9.80;97.80;;;10.16;58.01;98133.22;10396006;28;20606;-67
2023/10/16 16:37:07;;;;;;;3.60;3.40;;;9.60;98.00;;;10.02;59.42;98134.00;10403227;28;20233;-63
2023/10/16 16:42:13;;;;;;;4.85;4.10;;;9.50;98.30;;;9.87;58.79;98132.25;10407918;28;20229;-63
2023/10/16 16:47:18;;;;;;;6.55;5.47;;;9.40;98.50;;;9.76;59.41;98138.34;10397924;28;20233;-62
2023/10/16 16:52:22;;;;;;;6.03;4.60;;;9.20;98.70;;;9.67;59.26;98136.06;10405186;28;20225;-63
2023/10/16 16:57:25;;;;;;;4.20;3.80;;;9.20;98.80;;;9.61;60.80;98150.97;10403289;28;20304;-61
2023/10/16 17:02:30;;;;;;;3.42;3.20;;;9.10;99.30;;;9.61;60.37;98153.50;10394712;28;20234;-63
2023/10/16 17:07:33;;;;;;;2.88;2.67;;;9.10;99.50;;;9.67;60.73;98145.38;10399266;28;20230;-60
2023/10/16 17:12:37;;;;;;;6.53;5.50;;;9.10;99.90;;;9.62;64.47;98155.28;10399534;28;20235;-60
2023/10/16 17:17:43;;;;;;;5.78;5.20;;;9.00;99.90;;;9.62;63.11;98146.75;10396783;28;20246;-61
2023/10/16 17:22:50;;;;;;;5.80;5.25;;;8.90;99.90;;;9.52;64.64;98144.38;10403220;28;20226;-61
2023/10/16 17:28:08;;;;;;;13.98;9.63;;;8.80;99.90;;;9.32;67.28;98136.28;10403783;28;20708;-61
2023/10/16 17:33:12;;;;;;;6.68;5.90;;;8.50;99.90;;;9.21;68.17;98140.72;10406603;28;20603;-60
2023/10/16 17:38:15;;;;;;;5.30;4.80;;;8.40;99.90;;;9.01;70.28;98144.47;10410823;28;20233;-61
2023/10/16 17:43:19;;;;;;;4.43;4.13;;;8.20;99.90;;;8.79;71.58;98159.06;10404770;28;20238;-61
2023/10/16 17:48:25;;;;;;;4.63;4.33;;;8.10;99.90;;;8.62;73.02;98157.03;10398971;28;20620;-62
2023/10/16 17:53:28;;;;;;;5.07;4.63;;;7.90;99.90;;;8.60;73.09;98159.47;10414430;28;20240;-61
2023/10/16 17:58:32;;;;;;;6.60;5.90;;;7.90;99.90;;;8.60;73.68;98158.59;10409777;28;20226;-63
2023/10/16 18:03:37;;;;;;;7.27;6.33;;;7.90;99.90;;;8.48;77.31;98158.63;10403814;28;20236;-61
2023/10/16 18:08:43;;;;;;;11.20;7.93;;;7.80;99.90;;;8.40;77.95;98175.03;10407945;28;20225;-62
2023/10/16 18:13:46;;;;;;;8.00;7.20;;;7.70;99.90;;;8.32;79.41;98171.88;10405880;28;20292;-62
2023/10/16 18:18:51;;;;;;;7.10;5.77;;;7.60;99.90;;;8.20;78.61;98183.75;10409405;28;20232;-61
2023/10/16 18:23:54;;;;;;;7.00;6.40;;;7.50;99.90;;;8.18;79.14;98185.31;10406635;28;20241;-59
2023/10/16 18:28:58;;;;;;;7.47;6.87;;;7.50;99.90;;;8.11;79.62;98187.41;10392406;28;20225;-62
2023/10/16 18:34:03;;;;;;;6.80;6.20;;;7.40;99.90;;;8.13;79.85;98179.91;10402352;28;20229;-61
2023/10/16 18:39:13;;;;;;;6.73;6.10;;;7.40;99.90;;;8.04;82.74;98194.50;10406896;28;20224;-62
2023/10/16 18:44:17;;;;;;;7.60;6.90;;;7.30;99.90;;;7.93;83.30;98197.94;10409870;28;20239;-62
2023/10/16 18:49:21;;;;;;;11.00;10.00;;;7.20;99.90;;;7.95;82.79;98193.84;10405031;28;20241;-63
2023/10/16 18:54:24;;;;;;;7.43;6.83;;;7.20;99.90;;;7.86;82.18;98191.50;10410260;28;20229;-62
2023/10/16 18:59:28;;;;;;;8.00;7.30;;;7.10;99.90;;;7.90;82.84;98193.53;10402964;28;20768;-60
2023/10/16 19:04:33;;;;;;;9.53;8.73;;;7.20;99.90;;;7.86;83.92;98186.41;10403533;28;20611;-63
2023/10/16 19:09:37;;;;;;;7.50;6.80;;;7.20;99.90;;;7.80;82.98;98193.59;10406373;28;20311;-60
2023/10/16 19:14:40;;;;;;;7.07;6.57;;;7.10;99.90;;;7.71;83.72;98192.94;10406346;28;20236;-62
2023/10/16 19:19:44;;;;;;;6.40;5.90;;;7.00;99.90;;;7.62;83.70;98199.13;10396775;28;20230;-62
2023/10/16 19:24:49;;;;;;;7.07;6.47;;;6.90;99.90;;;7.57;84.79;98210.59;10402667;28;20233;-61
2023/10/16 19:29:56;;;;;;;6.53;6.03;;;6.90;99.90;;;7.49;85.21;98216.78;10399778;28;20227;-62
2023/10/16 19:35:04;;;;;;;7.07;6.47;;;6.70;99.90;;;7.31;85.78;98216.28;10404134;28;20226;-61
2023/10/16 19:40:15;;;;;;;8.90;8.00;;;6.60;99.90;;;7.29;85.84;98211.84;10399482;28;20717;-59
2023/10/16 19:45:20;;;;;;;10.10;9.13;;;6.50;99.90;;;7.29;86.34;98209.31;10401617;28;20313;-61
2023/10/16 19:50:24;;;;;;;15.40;12.77;;;6.50;99.90;;;7.32;86.50;98217.16;10399223;28;20229;-61
2023/10/16 19:55:28;;;;;;;9.80;8.90;;;6.50;99.90;;;7.09;87.29;98213.78;10390690;28;20226;-62
2023/10/16 20:00:34;;;;;;;8.07;7.37;;;6.40;99.90;;;7.13;87.73;98220.00;10375312;28;20230;-62
2023/10/16 20:05:40;;;;;;;9.20;8.30;;;6.30;99.90;;;6.96;89.18;98218.72;10386289;28;20256;-60
2023/10/16 20:10:43;;;;;;;8.17;7.43;;;6.20;99.90;;;6.84;88.66;98223.75;10376722;28;20241;-62
2023/10/16 20:15:47;;;;;;;9.40;8.50;;;6.10;99.90;;;6.87;88.87;98236.69;10390411;28;20243;-61
2023/10/16 20:20:59;;;;;;;19.93;15.00;;;6.20;99.90;;;6.89;89.22;98249.47;10388743;28;20226;-62
2023/10/16 20:26:02;;;;;;;25.83;15.53;;;6.20;99.90;;;6.92;89.96;98250.59;10400133;28;20229;-65
2023/10/16 20:31:06;;;;;;;16.03;11.37;;;6.10;99.90;;;6.83;89.82;98243.94;10401976;28;20225;-59
2023/10/16 20:36:11;;;;;;;8.77;7.97;;;6.00;99.90;;;6.69;90.56;98235.22;10405205;28;20228;-59
2023/10/16 20:41:14;;;;;;;7.97;6.90;;;5.90;99.90;;;6.63;91.96;98229.69;10404621;28;20248;-60
2023/10/16 20:46:17;;;;;;;6.03;5.40;;;5.90;99.90;;;6.52;90.76;98222.13;10396580;28;20704;-59
2023/10/16 20:51:22;;;;;;;6.00;5.50;;;5.70;99.90;;;6.46;91.14;98218.19;10382504;28;20241;-62
2023/10/16 20:56:27;;;;;;;7.67;6.97;;;5.70;99.90;;;6.36;90.60;98229.28;10392218;28;20710;-61
2023/10/16 21:01:32;;;;;;;7.07;6.47;;;5.60;99.90;;;6.15;89.76;98233.53;10372544;28;20280;-61
2023/10/16 21:06:36;;;;;;;6.37;5.87;;;5.50;99.90;;;6.13;90.67;98229.13;10384561;28;20241;-62
2023/10/16 21:11:40;;;;;;;7.27;6.57;;;5.50;99.90;;;6.12;90.29;98215.53;10389637;28;20234;-61
2023/10/16 21:16:43;;;;;;;6.87;6.37;;;5.50;99.90;;;6.06;90.72;98226.06;10387670;28;20578;-62
2023/10/16 21:21:48;;;;;;;6.90;6.30;;;5.40;99.90;;;6.00;91.17;98217.09;10388547;28;20234;-61
2023/10/16 21:26:51;;;;;;;8.07;7.33;;;5.30;99.90;;;5.81;91.49;98223.19;10384037;28;20237;-62
2023/10/16 21:31:54;;;;;;;8.00;7.30;;;5.10;99.90;;;5.56;92.29;98238.06;10388464;28;20348;-58
2023/10/16 21:36:59;;;;;;;8.03;7.23;;;4.90;99.90;;;5.65;92.23;98237.91;10378901;28;20234;-59
2023/10/16 21:42:04;;;;;;;7.63;6.93;;;5.00;99.90;;;5.61;92.91;98228.31;10383272;28;20244;-63
2023/10/16 21:47:08;;;;;;;7.30;6.70;;;4.90;99.90;;;5.54;93.46;98223.47;10388097;28;20233;-61
2023/10/16 21:52:14;;;;;;;6.90;6.30;;;4.80;99.90;;;5.45;94.81;98207.50;10382183;28;20229;-60
2023/10/16 21:57:19;;;;;;;6.80;6.20;;;4.80;99.90;;;5.29;93.85;98211.28;10380840;28;20227;-62
2023/10/16 22:02:22;;;;;;;8.20;7.40;;;4.60;99.90;;;5.17;93.96;98210.28;10387628;28;20711;-62
2023/10/16 22:07:27;;;;;;;7.43;6.77;;;4.50;99.90;;;5.14;94.13;98195.72;10381457;28;20368;-62
2023/10/16 22:12:31;;;;;;;6.53;6.03;;;4.50;99.90;;;4.97;94.41;98185.81;10382453;28;20587;-62
2023/10/16 22:17:34;;;;;;;7.00;6.37;;;4.30;99.90;;;4.97;94.09;98175.69;10384479;28;20230;-64
2023/10/16 22:22:40;;;;;;;7.40;6.90;;;4.30;99.90;;;4.94;94.27;98161.13;10377787;28;20877;-62
2023/10/16 22:27:43;;;;;;;6.60;6.07;;;4.30;99.90;;;4.99;94.70;98158.97;10385388;28;20230;-59
2023/10/16 22:32:46;;;;;;;7.90;7.20;;;4.30;99.90;;;4.80;94.83;98156.56;10383034;28;20226;-60
2023/10/16 22:37:51;;;;;;;8.80;7.90;;;4.20;99.90;;;4.57;95.45;98166.38;10382603;28;20228;-61
2023/10/16 22:42:54;;;;;;;7.77;7.03;;;4.00;99.90;;;4.58;94.80;98153.88;10385731;28;20735;-62
2023/10/16 22:47:59;;;;;;;7.60;7.00;;;4.00;99.90;;;4.55;94.58;98161.22;10380021;28;20238;-60
2023/10/16 22:53:04;;;;;;;8.40;7.60;;;4.00;99.90;;;4.56;94.27;98154.50;10389474;28;20232;-61
2023/10/16 22:58:07;;;;;;;8.03;7.17;;;4.00;99.90;;;4.61;93.92;98155.78;10377055;28;20229;-61